createdAt,value
2023-02-22T00:01:37.897Z,12.70
2023-02-22T00:04:06.566Z,12.76
2023-02-22T00:06:33.168Z,12.72
2023-02-22T00:08:59.885Z,12.75
2023-02-22T00:11:26.629Z,12.78
2023-02-22T00:13:57.058Z,12.72
2023-02-22T00:16:25.387Z,12.71
2023-02-22T00:18:53.122Z,12.64
2023-02-22T00:21:19.765Z,12.51
2023-02-22T00:23:47.944Z,12.40
2023-02-22T00:26:20.230Z,12.43
2023-02-22T00:28:48.832Z,12.52
2023-02-22T00:31:16.087Z,12.54
2023-02-22T00:33:43.228Z,12.59
2023-02-22T00:36:11.753Z,12.62
2023-02-22T00:38:38.781Z,12.62
2023-02-22T00:41:05.579Z,12.67
2023-02-22T00:43:32.001Z,12.65
2023-02-22T00:45:58.725Z,12.65
2023-02-22T00:48:25.199Z,12.65
2023-02-22T00:50:55.086Z,12.62
2023-02-22T00:53:23.334Z,12.62
2023-02-22T00:55:50.387Z,12.63
2023-02-22T00:58:17.154Z,12.50
2023-02-22T01:00:43.712Z,12.54
2023-02-22T01:03:13.234Z,12.45
2023-02-22T01:05:39.955Z,12.32
2023-02-22T01:08:08.301Z,12.37
2023-02-22T01:10:39.053Z,12.44
2023-02-22T01:13:09.177Z,12.41
2023-02-22T01:15:37.790Z,12.54
2023-02-22T01:18:08.035Z,12.50
2023-02-22T01:20:34.933Z,12.42
2023-02-22T01:23:19.689Z,12.25
2023-02-22T01:25:46.143Z,12.40
2023-02-22T01:31:59.230Z,12.37
2023-02-22T01:34:26.076Z,12.45
2023-02-22T01:37:24.577Z,12.47
2023-02-22T01:40:34.705Z,12.42
2023-02-22T01:43:29.457Z,12.28
2023-02-22T01:46:32.985Z,12.29
2023-02-22T01:49:15.272Z,12.25
2023-02-22T01:51:53.385Z,12.45
2023-02-22T01:54:35.541Z,12.52
2023-02-22T01:57:17.241Z,12.07
2023-02-22T02:00:09.964Z,11.95
2023-02-22T02:03:27.359Z,12.30
2023-02-22T02:06:47.019Z,12.15
2023-02-22T02:09:48.956Z,12.15
2023-02-22T02:12:27.129Z,11.76
2023-02-22T02:14:53.528Z,11.67
2023-02-22T02:17:22.985Z,11.62
2023-02-22T02:23:40.983Z,11.77
2023-02-22T02:26:26.039Z,11.67
2023-02-22T02:29:17.421Z,11.91
2023-02-22T02:32:05.311Z,12.03
2023-02-22T02:34:55.709Z,11.96
2023-02-22T02:37:48.440Z,11.77
2023-02-22T02:40:49.683Z,11.74
2023-02-22T02:43:42.836Z,11.69
2023-02-22T02:46:27.401Z,11.67
2023-02-22T02:49:32.262Z,11.65
2023-02-22T02:52:19.412Z,11.50
2023-02-22T02:54:46.864Z,11.46
2023-02-22T02:57:33.516Z,11.25
2023-02-22T03:00:22.920Z,11.31
2023-02-22T03:07:23.162Z,11.29
2023-02-22T03:10:27.018Z,11.19
2023-02-22T03:13:27.442Z,11.03
2023-02-22T03:16:03.873Z,10.98
2023-02-22T03:19:15.064Z,11.05
2023-02-22T03:21:55.767Z,11.02
2023-02-22T03:24:28.694Z,10.94
2023-02-22T03:27:35.126Z,10.89
2023-02-22T03:30:08.519Z,10.84
2023-02-22T03:32:42.549Z,10.46
2023-02-22T03:35:30.500Z,10.65
2023-02-22T03:38:00.470Z,10.68
2023-02-22T03:40:34.766Z,10.62
2023-02-22T03:43:07.892Z,10.40
2023-02-22T03:45:46.816Z,10.33
2023-02-22T03:49:15.246Z,10.43
2023-02-22T03:51:47.868Z,10.44
2023-02-22T03:54:16.517Z,10.43
2023-02-22T03:56:50.134Z,10.04
2023-02-22T03:59:17.063Z,9.88
2023-02-22T04:01:46.485Z,10.18
2023-02-22T04:04:12.917Z,10.28
2023-02-22T04:06:48.179Z,10.19
2023-02-22T04:09:16.080Z,9.94
2023-02-22T04:11:42.929Z,10.13
2023-02-22T04:14:09.510Z,10.08
2023-02-22T04:16:36.010Z,10.08
2023-02-22T04:19:02.649Z,10.15
2023-02-22T04:21:32.315Z,9.95
2023-02-22T04:23:59.761Z,9.79
2023-02-22T04:26:34.017Z,9.94
2023-02-22T04:29:00.424Z,9.97
2023-02-22T04:31:26.892Z,9.86
2023-02-22T04:33:53.392Z,9.82
2023-02-22T04:36:45.915Z,9.51
2023-02-22T04:39:15.410Z,9.41
2023-02-22T04:41:41.844Z,9.75
2023-02-22T04:44:17.182Z,10.12
2023-02-22T04:46:43.681Z,10.20
2023-02-22T04:49:16.572Z,9.66
2023-02-22T04:51:45.774Z,9.69
2023-02-22T04:54:25.745Z,9.58
2023-02-22T04:56:52.141Z,9.56
2023-02-22T04:59:19.701Z,9.94
2023-02-22T05:01:46.636Z,9.75
2023-02-22T05:04:13.141Z,9.77
2023-02-22T05:06:45.922Z,9.60
2023-02-22T05:09:12.374Z,9.86
2023-02-22T05:11:57.105Z,10.09
2023-02-22T05:14:26.758Z,9.98
2023-02-22T05:16:57.708Z,9.88
2023-02-22T05:19:24.560Z,9.98
2023-02-22T05:21:51.308Z,9.97
2023-02-22T05:24:20.087Z,9.85
2023-02-22T05:26:46.703Z,10.01
2023-02-22T05:29:16.101Z,9.99
2023-02-22T05:31:45.732Z,10.55
2023-02-22T05:34:12.400Z,9.98
2023-02-22T05:36:47.577Z,10.37
2023-02-22T05:39:14.046Z,10.08
2023-02-22T05:41:40.533Z,10.18
2023-02-22T05:44:16.303Z,10.17
2023-02-22T05:46:42.814Z,10.40
2023-02-22T05:49:18.281Z,10.49
2023-02-22T05:51:47.957Z,10.39
2023-02-22T05:54:17.126Z,10.14
2023-02-22T05:56:43.545Z,10.41
2023-02-22T05:59:10.009Z,10.57
2023-02-22T06:01:36.460Z,10.54
2023-02-22T06:04:03.337Z,10.35
2023-02-22T06:06:29.744Z,10.35
2023-02-22T06:08:56.129Z,10.10
2023-02-22T06:11:22.562Z,10.16
2023-02-22T06:13:51.543Z,10.45
2023-02-22T06:16:18.888Z,10.37
2023-02-22T06:18:45.368Z,10.43
2023-02-22T06:21:11.840Z,10.41
2023-02-22T06:23:38.564Z,10.46
2023-02-22T06:26:05.481Z,10.61
2023-02-22T06:28:31.874Z,10.61
2023-02-22T06:30:58.300Z,10.66
2023-02-22T06:33:24.688Z,10.65
2023-02-22T06:35:51.093Z,10.77
2023-02-22T06:38:24.880Z,10.63
2023-02-22T06:40:52.003Z,10.72
2023-02-22T06:43:18.556Z,10.39
2023-02-22T06:45:45.039Z,10.43
2023-02-22T06:48:11.495Z,10.69
2023-02-22T06:50:37.920Z,10.75
2023-02-22T06:53:04.860Z,10.70
2023-02-22T06:55:34.212Z,10.13
2023-02-22T06:58:01.284Z,10.56
2023-02-22T07:00:39.325Z,10.77
2023-02-22T07:03:05.956Z,11.24
2023-02-22T07:05:32.393Z,10.24
2023-02-22T07:08:07.159Z,10.77
2023-02-22T07:10:35.317Z,10.81
2023-02-22T07:13:02.436Z,11.31
2023-02-22T07:15:31.121Z,10.93
2023-02-22T07:17:57.992Z,11.13
2023-02-22T07:20:26.411Z,11.57
2023-02-22T07:22:53.466Z,11.36
2023-02-22T07:25:20.826Z,11.81
2023-02-22T07:27:47.462Z,11.94
2023-02-22T07:30:20.465Z,11.92
2023-02-22T07:32:47.364Z,11.84
2023-02-22T07:35:16.787Z,11.71
2023-02-22T07:37:43.587Z,12.07
2023-02-22T07:40:11.400Z,11.61
2023-02-22T07:42:59.726Z,11.00
2023-02-22T07:45:31.494Z,11.12
2023-02-22T07:47:58.814Z,11.69
2023-02-22T07:50:27.200Z,11.82
2023-02-22T07:52:55.731Z,12.55
2023-02-22T07:55:24.258Z,12.47
2023-02-22T07:57:52.833Z,12.08
2023-02-22T08:00:27.840Z,13.11
2023-02-22T08:02:55.422Z,13.84
2023-02-22T08:05:24.495Z,13.96
2023-02-22T08:07:51.050Z,13.91
2023-02-22T08:10:20.562Z,14.41
2023-02-22T08:12:46.982Z,13.84
2023-02-22T08:15:24.261Z,14.41
2023-02-22T08:17:51.270Z,14.77
2023-02-22T08:20:17.809Z,14.99
2023-02-22T08:22:44.471Z,14.52
2023-02-22T08:25:11.582Z,15.08
2023-02-22T08:27:38.346Z,14.20
2023-02-22T08:30:06.234Z,15.08
2023-02-22T08:32:32.861Z,15.63
2023-02-22T08:34:59.474Z,15.42
2023-02-22T08:37:25.897Z,14.51
2023-02-22T08:39:53.604Z,15.07
2023-02-22T08:42:20.035Z,15.94
2023-02-22T08:44:46.517Z,14.15
2023-02-22T08:47:13.117Z,15.00
2023-02-22T08:49:39.584Z,15.37
2023-02-22T08:52:06.010Z,15.94
2023-02-22T08:54:32.480Z,16.33
2023-02-22T08:56:58.952Z,17.10
2023-02-22T08:59:25.600Z,17.87
2023-02-22T09:01:52.076Z,18.91
2023-02-22T09:04:18.541Z,17.39
2023-02-22T09:06:48.333Z,16.91
2023-02-22T09:09:14.835Z,18.18
2023-02-22T09:11:41.235Z,18.23
2023-02-22T09:14:07.659Z,18.22
2023-02-22T09:16:34.111Z,18.23
2023-02-22T09:19:00.514Z,17.10
2023-02-22T09:21:26.982Z,17.00
2023-02-22T09:23:54.656Z,19.09
2023-02-22T09:26:23.480Z,17.78
2023-02-22T09:28:50.790Z,20.07
2023-02-22T09:31:17.665Z,19.26
2023-02-22T09:33:47.124Z,20.82
2023-02-22T09:36:13.898Z,20.32
2023-02-22T09:38:40.811Z,19.90
2023-02-22T09:41:19.699Z,19.22
2023-02-22T09:44:10.425Z,18.97
2023-02-22T09:46:42.003Z,19.53
2023-02-22T09:49:25.012Z,19.96
2023-02-22T09:52:06.491Z,16.91
2023-02-22T09:54:46.751Z,17.46
2023-02-22T09:57:18.047Z,17.56
2023-02-22T10:00:01.037Z,15.81
2023-02-22T10:02:32.581Z,16.84
2023-02-22T10:05:10.357Z,16.29
2023-02-22T10:07:47.147Z,15.44
2023-02-22T10:10:18.705Z,15.67
2023-02-22T10:12:53.902Z,15.29
2023-02-22T10:15:37.258Z,15.54
2023-02-22T10:18:28.502Z,15.40
2023-02-22T10:20:54.855Z,16.00
2023-02-22T10:23:38.971Z,15.23
2023-02-22T10:26:16.435Z,15.41
2023-02-22T10:29:22.089Z,15.06
2023-02-22T10:31:58.993Z,15.56
2023-02-22T10:34:28.401Z,15.86
2023-02-22T10:37:08.006Z,15.89
2023-02-22T10:39:38.791Z,15.47
2023-02-22T10:42:08.098Z,15.54
2023-02-22T10:44:39.261Z,15.57
2023-02-22T10:47:09.254Z,15.77
2023-02-22T10:49:49.599Z,16.27
2023-02-22T10:52:22.318Z,15.10
2023-02-22T10:54:51.809Z,15.10
2023-02-22T10:57:25.861Z,14.89
2023-02-22T10:59:52.683Z,15.43
2023-02-22T11:02:19.399Z,15.44
2023-02-22T11:04:49.862Z,15.47
2023-02-22T11:07:21.828Z,15.41
2023-02-22T11:09:57.730Z,15.36
2023-02-22T11:12:32.177Z,15.62
2023-02-22T11:15:18.957Z,15.58
2023-02-22T11:17:48.400Z,15.50
2023-02-22T11:20:25.274Z,14.97
2023-02-22T11:23:01.069Z,14.78
2023-02-22T11:25:33.641Z,15.43
2023-02-22T11:28:16.020Z,15.33
2023-02-22T11:30:44.525Z,15.15
2023-02-22T11:33:23.547Z,15.42
2023-02-22T11:36:04.703Z,15.02
2023-02-22T11:38:33.365Z,15.45
2023-02-22T11:41:05.952Z,15.23
2023-02-22T11:43:32.458Z,15.25
2023-02-22T11:46:12.673Z,15.77
2023-02-22T11:48:44.841Z,15.54
2023-02-22T11:51:23.506Z,15.57
2023-02-22T11:53:59.645Z,16.00
2023-02-22T11:56:38.121Z,15.49
2023-02-22T11:59:36.536Z,16.08
2023-02-22T12:02:24.298Z,16.00
2023-02-22T12:05:26.223Z,15.80
2023-02-22T12:08:28.278Z,15.41
2023-02-22T12:11:22.194Z,15.72
2023-02-22T12:14:01.178Z,15.74
2023-02-22T12:16:33.606Z,15.92
2023-02-22T12:19:22.126Z,15.74
2023-02-22T12:21:55.497Z,15.55
2023-02-22T12:24:36.622Z,16.38
2023-02-22T12:27:27.319Z,16.52
2023-02-22T12:30:06.869Z,16.00
2023-02-22T12:32:48.124Z,15.68
2023-02-22T12:35:37.392Z,15.92
2023-02-22T12:38:31.346Z,15.70
2023-02-22T12:41:09.928Z,15.99
2023-02-22T12:43:46.092Z,16.41
2023-02-22T12:46:24.526Z,16.04
2023-02-22T12:49:20.803Z,16.28
2023-02-22T12:51:47.320Z,15.88
2023-02-22T12:54:23.561Z,16.00
2023-02-22T12:56:52.700Z,16.43
2023-02-22T12:59:33.711Z,16.78
2023-02-22T13:02:11.890Z,16.78
2023-02-22T13:04:38.444Z,16.05
2023-02-22T13:07:13.785Z,15.63
2023-02-22T13:09:47.357Z,16.61
2023-02-22T13:12:24.750Z,17.12
2023-02-22T13:15:18.513Z,16.80
2023-02-22T13:18:12.439Z,16.29
2023-02-22T13:20:59.370Z,16.42
2023-02-22T13:23:44.321Z,16.59
2023-02-22T13:26:35.693Z,16.39
2023-02-22T13:29:14.242Z,16.82
2023-02-22T13:32:18.860Z,16.36
2023-02-22T13:35:08.276Z,16.49
2023-02-22T13:37:40.976Z,16.52
2023-02-22T13:40:26.164Z,16.45
2023-02-22T13:43:11.510Z,16.76
2023-02-22T13:45:43.650Z,16.31
2023-02-22T13:48:27.915Z,16.77
2023-02-22T13:51:06.687Z,16.67
2023-02-22T13:53:43.832Z,15.94
2023-02-22T13:56:11.923Z,16.45
2023-02-22T13:58:57.974Z,16.47
2023-02-22T14:04:44.086Z,16.69
2023-02-22T14:07:22.587Z,16.39
2023-02-22T14:09:50.489Z,16.82
2023-02-22T14:12:29.002Z,16.78
2023-02-22T14:15:32.420Z,16.39
2023-02-22T14:18:01.855Z,16.64
2023-02-22T14:20:35.951Z,16.60
2023-02-22T14:23:27.702Z,16.43
2023-02-22T14:25:55.011Z,16.46
2023-02-22T14:35:50.093Z,16.52
2023-02-22T14:38:30.674Z,16.01
2023-02-22T14:41:47.619Z,16.40
2023-02-22T14:45:12.739Z,16.75
2023-02-22T14:48:11.715Z,16.64
2023-02-22T14:51:21.976Z,16.63
2023-02-22T14:54:45.597Z,16.40
2023-02-22T14:58:03.199Z,16.53
2023-02-22T15:00:47.235Z,16.10
2023-02-22T15:03:37.674Z,15.64
2023-02-22T15:06:28.674Z,15.61
2023-02-22T15:09:14.473Z,15.63
2023-02-22T15:14:44.625Z,15.22
2023-02-22T15:17:22.762Z,15.57
2023-02-22T15:20:15.934Z,15.33
2023-02-22T15:23:11.406Z,15.24
2023-02-22T15:26:27.577Z,15.74
2023-02-22T15:28:58.637Z,15.25
2023-02-22T15:31:50.480Z,15.34
2023-02-22T15:34:32.407Z,15.23
2023-02-22T15:37:19.874Z,15.35
2023-02-22T15:40:18.940Z,15.31
2023-02-22T15:46:16.570Z,14.96
2023-02-22T15:48:43.169Z,15.01
2023-02-22T15:51:17.184Z,15.24
2023-02-22T15:53:46.661Z,15.15
2023-02-22T16:00:17.013Z,15.11
2023-02-22T16:06:39.258Z,14.84
2023-02-22T16:09:12.852Z,14.77
2023-02-22T16:11:43.958Z,14.66
2023-02-22T16:20:21.819Z,14.47
2023-02-22T16:22:49.744Z,14.03
2023-02-22T16:25:32.748Z,14.54
2023-02-22T16:28:26.349Z,14.53
2023-02-22T16:31:48.023Z,14.25
2023-02-22T16:34:20.630Z,14.28
2023-02-22T16:37:21.143Z,14.46
2023-02-22T16:39:51.697Z,14.35
2023-02-22T16:42:59.914Z,14.11
2023-02-22T16:45:46.936Z,14.16
2023-02-22T16:48:46.132Z,13.89
2023-02-22T16:51:44.022Z,14.17
2023-02-22T16:54:25.979Z,13.90
2023-02-22T16:56:52.901Z,13.70
2023-02-22T16:59:19.537Z,13.71
2023-02-22T17:01:46.069Z,13.88
2023-02-22T17:04:18.117Z,13.57
2023-02-22T17:06:44.733Z,14.03
2023-02-22T17:09:11.776Z,13.79
2023-02-22T17:11:39.125Z,13.44
2023-02-22T17:14:05.841Z,13.68
2023-02-22T17:16:32.280Z,14.13
2023-02-22T17:18:58.837Z,13.90
2023-02-22T17:21:25.272Z,13.44
2023-02-22T17:23:51.645Z,13.43
2023-02-22T17:26:18.304Z,13.52
2023-02-22T17:28:45.041Z,13.52
2023-02-22T17:31:23.557Z,14.11
2023-02-22T17:33:51.517Z,13.31
2023-02-22T17:36:18.299Z,13.49
2023-02-22T17:38:44.876Z,13.44
2023-02-22T17:41:11.339Z,13.74
2023-02-22T17:43:37.740Z,13.40
2023-02-22T17:46:08.300Z,13.34
2023-02-22T17:48:35.305Z,13.13
2023-02-22T17:51:09.601Z,13.25
2023-02-22T17:53:37.260Z,13.26
2023-02-22T17:56:13.309Z,13.75
2023-02-22T17:58:41.288Z,13.41
2023-02-22T18:01:20.737Z,13.38
2023-02-22T18:03:47.485Z,12.90
2023-02-22T18:06:22.574Z,13.20
2023-02-22T18:08:55.796Z,13.40
2023-02-22T18:11:26.313Z,13.21
2023-02-22T18:13:55.383Z,13.31
2023-02-22T18:16:22.631Z,13.13
2023-02-22T18:18:49.710Z,13.36
2023-02-22T18:21:16.363Z,13.20
2023-02-22T18:23:44.792Z,13.26
2023-02-22T18:26:16.702Z,13.02
2023-02-22T18:28:43.668Z,13.00
2023-02-22T18:31:15.997Z,13.21
2023-02-22T18:33:47.013Z,13.59
2023-02-22T18:36:14.449Z,13.00
2023-02-22T18:38:43.102Z,13.07
2023-02-22T18:41:12.783Z,13.12
2023-02-22T18:43:40.049Z,13.26
2023-02-22T18:46:14.910Z,12.75
2023-02-22T18:48:41.709Z,12.82
2023-02-22T18:51:10.781Z,13.00
2023-02-22T18:53:38.822Z,12.81
2023-02-22T18:56:11.780Z,12.69
2023-02-22T18:58:38.976Z,13.07
2023-02-22T19:01:07.150Z,12.89
2023-02-22T19:03:37.891Z,13.23
2023-02-22T19:06:09.188Z,13.06
2023-02-22T19:08:42.070Z,12.54
2023-02-22T19:11:11.246Z,12.81
2023-02-22T19:13:38.006Z,13.55
2023-02-22T19:16:06.076Z,13.03
2023-02-22T19:18:32.655Z,12.94
2023-02-22T19:21:01.697Z,12.90
2023-02-22T19:23:28.355Z,12.65
2023-02-22T19:25:54.769Z,13.29
2023-02-22T19:28:27.873Z,12.82
2023-02-22T19:30:54.366Z,12.42
2023-02-22T19:33:26.120Z,13.04
2023-02-22T19:35:52.541Z,12.65
2023-02-22T19:38:19.611Z,13.08
2023-02-22T19:40:46.611Z,13.34
2023-02-22T19:43:14.146Z,12.87
2023-02-22T19:45:40.624Z,13.24
2023-02-22T19:48:07.069Z,12.90
2023-02-22T19:50:33.535Z,13.19
2023-02-22T19:53:00.040Z,12.91
2023-02-22T19:55:32.161Z,12.55
2023-02-22T19:57:59.142Z,13.05
2023-02-22T20:00:26.972Z,13.03
2023-02-22T20:03:05.575Z,12.70
2023-02-22T20:05:36.245Z,12.98
2023-02-22T20:08:03.016Z,12.83
2023-02-22T20:10:29.441Z,12.90
2023-02-22T20:12:55.888Z,12.74
2023-02-22T20:15:23.947Z,12.84
2023-02-22T20:17:51.270Z,12.99
2023-02-22T20:20:18.561Z,12.74
2023-02-22T20:22:45.611Z,12.79
2023-02-22T20:25:13.558Z,12.66
2023-02-22T20:27:40.364Z,12.36
2023-02-22T20:30:09.786Z,12.52
2023-02-22T20:32:37.841Z,12.73
2023-02-22T20:35:05.951Z,12.47
2023-02-22T20:37:34.069Z,12.51
2023-02-22T20:40:00.586Z,13.00
2023-02-22T20:42:27.561Z,12.67
2023-02-22T20:44:54.493Z,12.46
2023-02-22T20:47:20.984Z,12.49
2023-02-22T20:49:47.406Z,12.74
2023-02-22T20:52:13.807Z,12.69
2023-02-22T20:54:40.239Z,12.78
2023-02-22T20:57:07.973Z,12.38
2023-02-22T20:59:34.524Z,12.58
2023-02-22T21:02:00.935Z,12.54
2023-02-22T21:04:32.920Z,12.57
2023-02-22T21:07:03.185Z,12.49
2023-02-22T21:09:31.254Z,12.60
2023-02-22T21:11:57.687Z,12.79
2023-02-22T21:14:24.983Z,12.66
2023-02-22T21:16:52.549Z,12.61
2023-02-22T21:19:26.349Z,12.40
2023-02-22T21:21:57.913Z,12.77
2023-02-22T21:24:26.016Z,12.50
2023-02-22T21:26:52.580Z,12.74
2023-02-22T21:29:19.484Z,12.20
2023-02-22T21:31:46.131Z,12.43
2023-02-22T21:34:14.070Z,12.53
2023-02-22T21:36:40.526Z,12.73
2023-02-22T21:39:17.837Z,12.59
2023-02-22T21:41:47.170Z,12.24
2023-02-22T21:44:13.917Z,12.30
2023-02-22T21:46:40.865Z,12.67
2023-02-22T21:49:07.945Z,12.07
2023-02-22T21:51:35.109Z,12.49
2023-02-22T21:54:06.813Z,12.55
2023-02-22T21:56:38.837Z,12.47
2023-02-22T21:59:23.715Z,12.25
2023-02-22T22:01:55.445Z,12.48
2023-02-22T22:04:27.390Z,12.45
2023-02-22T22:06:56.657Z,12.26
2023-02-22T22:09:23.891Z,12.11
2023-02-22T22:11:53.993Z,12.51
2023-02-22T22:14:25.068Z,12.57
2023-02-22T22:16:54.131Z,11.95
2023-02-22T22:19:20.693Z,11.92
2023-02-22T22:21:48.709Z,12.02
2023-02-22T22:24:15.153Z,12.12
2023-02-22T22:26:43.942Z,11.82
2023-02-22T22:29:11.413Z,11.97
2023-02-22T22:31:38.519Z,11.99
2023-02-22T22:34:06.055Z,12.14
2023-02-22T22:36:34.413Z,11.77
2023-02-22T22:39:00.957Z,11.49
2023-02-22T22:41:30.484Z,11.78
2023-02-22T22:43:56.926Z,11.90
2023-02-22T22:46:23.477Z,11.68
2023-02-22T22:48:49.988Z,11.49
2023-02-22T22:51:21.827Z,11.43
2023-02-22T22:53:50.138Z,11.19
2023-02-22T22:56:20.185Z,11.63
2023-02-22T22:58:52.441Z,11.66
2023-02-22T23:01:26.743Z,11.64
2023-02-22T23:03:55.866Z,11.08
2023-02-22T23:06:32.881Z,11.29
2023-02-22T23:08:59.964Z,11.02
2023-02-22T23:11:28.929Z,11.21
2023-02-22T23:13:56.495Z,11.32
2023-02-22T23:16:24.558Z,11.19
2023-02-22T23:18:51.407Z,11.56
2023-02-22T23:21:20.032Z,11.33
2023-02-22T23:23:51.475Z,11.44
2023-02-22T23:26:18.131Z,11.49
2023-02-22T23:28:47.067Z,11.14
2023-02-22T23:31:17.791Z,11.43
2023-02-22T23:33:48.136Z,11.48
2023-02-22T23:36:16.494Z,11.80
2023-02-22T23:38:43.762Z,11.72
2023-02-22T23:41:13.051Z,11.83
2023-02-22T23:43:40.541Z,11.78
2023-02-22T23:46:18.663Z,11.48
2023-02-22T23:48:54.624Z,11.60
2023-02-22T23:51:25.989Z,11.04
2023-02-22T23:53:55.759Z,11.26
2023-02-22T23:56:27.838Z,11.49
2023-02-22T23:58:57.177Z,11.69
